createdAt,value
2018-12-18T00:02:11.525Z,100308.95
2018-12-18T00:04:38.953Z,100306.97
2018-12-18T00:07:06.420Z,100299.62
2018-12-18T00:09:33.889Z,100301.62
2018-12-18T00:12:01.351Z,100302.09
2018-12-18T00:14:28.771Z,100301.33
2018-12-18T00:16:56.235Z,100309.66
2018-12-18T00:19:24.074Z,100309.34
2018-12-18T00:21:52.309Z,100305.92
2018-12-18T00:24:19.893Z,100306.39
2018-12-18T00:26:47.337Z,100303.55
2018-12-18T00:29:14.784Z,100297.01
2018-12-18T00:31:42.234Z,100294.34
2018-12-18T00:34:09.698Z,100294.59
2018-12-18T00:36:37.131Z,100293.26
2018-12-18T00:39:04.624Z,100290.99
2018-12-18T00:41:32.035Z,100298.69
2018-12-18T00:43:59.445Z,100299.57
2018-12-18T00:46:26.878Z,100295.66
2018-12-18T00:48:54.324Z,100295.20
2018-12-18T00:51:21.777Z,100300.56
2018-12-18T00:53:49.207Z,100298.34
2018-12-18T00:56:16.637Z,100299.22
2018-12-18T00:58:44.066Z,100298.03
2018-12-18T01:01:11.518Z,100296.83
2018-12-18T01:03:38.994Z,100295.72
2018-12-18T01:06:06.473Z,100290.45
2018-12-18T01:08:33.930Z,100284.53
2018-12-18T01:11:01.383Z,100288.30
2018-12-18T01:13:28.844Z,100290.16
2018-12-18T01:15:56.278Z,100285.81
2018-12-18T01:18:23.698Z,100281.58
2018-12-18T01:20:52.065Z,100281.80
2018-12-18T01:23:19.497Z,100283.53
2018-12-18T01:25:46.928Z,100279.92
2018-12-18T01:28:14.380Z,100282.58
2018-12-18T01:30:41.827Z,100277.31
2018-12-18T01:33:09.312Z,100276.34
2018-12-18T01:35:37.183Z,100274.85
2018-12-18T01:38:04.603Z,100277.11
2018-12-18T01:40:32.072Z,100274.13
2018-12-18T01:42:59.519Z,100283.95
2018-12-18T01:45:26.969Z,100287.78
2018-12-18T01:47:54.432Z,100280.94
2018-12-18T01:50:21.906Z,100281.48
2018-12-18T01:52:49.331Z,100285.29
2018-12-18T01:55:16.789Z,100288.61
2018-12-18T01:57:45.819Z,100291.14
2018-12-18T02:00:13.348Z,100287.78
2018-12-18T02:02:40.801Z,100293.42
2018-12-18T02:05:08.231Z,100295.07
2018-12-18T02:07:35.671Z,100299.43
2018-12-18T02:10:03.996Z,100296.44
2018-12-18T02:12:31.537Z,100288.94
2018-12-18T02:14:58.993Z,100288.89
2018-12-18T02:17:26.425Z,100284.63
2018-12-18T02:19:53.877Z,100276.00
2018-12-18T02:22:21.320Z,100279.32
2018-12-18T02:24:48.882Z,100274.41
2018-12-18T02:27:16.327Z,100273.12
2018-12-18T02:29:43.781Z,100274.78
2018-12-18T02:32:11.191Z,100271.89
2018-12-18T02:34:38.618Z,100275.13
2018-12-18T02:37:06.068Z,100263.31
2018-12-18T02:39:33.533Z,100259.22
2018-12-18T02:42:01.009Z,100259.05
2018-12-18T02:44:28.475Z,100259.39
2018-12-18T02:46:55.899Z,100255.88
2018-12-18T02:49:23.341Z,100255.95
2018-12-18T02:51:50.795Z,100248.14
2018-12-18T02:54:18.218Z,100250.25
2018-12-18T02:56:45.668Z,100258.22
2018-12-18T02:59:13.151Z,100252.38
2018-12-18T03:01:40.604Z,100258.86
2018-12-18T03:04:08.046Z,100265.30
2018-12-18T03:06:36.467Z,100267.92
2018-12-18T03:09:04.405Z,100271.06
2018-12-18T03:11:31.819Z,100273.27
2018-12-18T03:13:59.277Z,100274.98
2018-12-18T03:16:26.715Z,100284.02
2018-12-18T03:18:54.154Z,100279.27
2018-12-18T03:21:21.580Z,100277.08
2018-12-18T03:23:49.027Z,100280.86
2018-12-18T03:26:16.570Z,100276.02
2018-12-18T03:28:43.907Z,100275.12
2018-12-18T03:31:11.361Z,100266.41
2018-12-18T03:33:38.820Z,100270.72
2018-12-18T03:36:06.277Z,100273.88
2018-12-18T03:38:33.711Z,100274.82
2018-12-18T03:41:01.165Z,100266.12
2018-12-18T03:43:28.608Z,100265.70
2018-12-18T03:45:56.051Z,100260.41
2018-12-18T03:48:23.481Z,100259.09
2018-12-18T03:50:50.953Z,100262.00
2018-12-18T03:53:18.427Z,100266.16
2018-12-18T03:55:46.811Z,100265.81
2018-12-18T03:58:14.363Z,100262.81
2018-12-18T04:00:41.836Z,100264.81
2018-12-18T04:03:09.294Z,100263.66
2018-12-18T04:05:36.725Z,100261.05
2018-12-18T04:08:04.187Z,100262.55
2018-12-18T04:10:31.995Z,100266.72
2018-12-18T04:12:59.095Z,100267.64
2018-12-18T04:15:26.527Z,100265.61
2018-12-18T04:17:53.960Z,100265.28
2018-12-18T04:20:21.405Z,100262.20
2018-12-18T04:22:48.857Z,100269.12
2018-12-18T04:25:16.320Z,100260.83
2018-12-18T04:27:43.734Z,100257.05
2018-12-18T04:30:11.196Z,100244.89
2018-12-18T04:32:38.610Z,100241.11
2018-12-18T04:35:06.097Z,100230.16
2018-12-18T04:37:33.519Z,100226.98
2018-12-18T04:40:01.925Z,100224.39
2018-12-18T04:42:29.460Z,100228.36
2018-12-18T04:44:56.911Z,100226.69
2018-12-18T04:47:24.361Z,100222.75
2018-12-18T04:49:51.802Z,100223.63
2018-12-18T04:52:20.191Z,100228.46
2018-12-18T04:54:47.718Z,100231.01
2018-12-18T04:57:15.170Z,100230.05
2018-12-18T04:59:42.614Z,100232.58
2018-12-18T05:02:10.035Z,100232.70
2018-12-18T05:04:37.479Z,100231.39
2018-12-18T05:07:04.895Z,100239.73
2018-12-18T05:09:32.344Z,100235.12
2018-12-18T05:11:59.762Z,100235.33
2018-12-18T05:14:27.203Z,100234.89
2018-12-18T05:16:54.670Z,100239.95
2018-12-18T05:19:22.117Z,100235.06
2018-12-18T05:21:49.573Z,100232.74
2018-12-18T05:24:16.983Z,100233.58
2018-12-18T05:26:44.459Z,100223.41
2018-12-18T05:29:11.893Z,100222.48
2018-12-18T05:31:39.317Z,100228.64
2018-12-18T05:34:06.766Z,100230.27
2018-12-18T05:36:34.203Z,100229.41
2018-12-18T05:39:01.637Z,100230.28
2018-12-18T05:41:29.082Z,100235.11
2018-12-18T05:43:57.388Z,100233.58
2018-12-18T05:46:24.920Z,100234.29
2018-12-18T05:48:52.347Z,100232.71
2018-12-18T05:51:19.838Z,100229.28
2018-12-18T05:53:47.278Z,100226.66
2018-12-18T05:56:14.718Z,100231.19
2018-12-18T05:58:42.178Z,100238.55
2018-12-18T06:01:09.619Z,100233.90
2018-12-18T06:03:37.056Z,100247.61
2018-12-18T06:06:04.905Z,100243.78
2018-12-18T06:08:31.990Z,100246.80
2018-12-18T06:10:59.429Z,100240.47
2018-12-18T06:13:26.860Z,100238.34
2018-12-18T06:15:54.288Z,100239.02
2018-12-18T06:18:21.738Z,100241.55
2018-12-18T06:20:49.174Z,100236.25
2018-12-18T06:23:16.624Z,100242.80
2018-12-18T06:25:44.071Z,100229.28
2018-12-18T06:28:12.472Z,100237.08
2018-12-18T06:30:39.898Z,100236.66
2018-12-18T06:33:07.342Z,100235.59
2018-12-18T06:35:34.777Z,100231.38
2018-12-18T06:38:02.258Z,100234.29
2018-12-18T06:40:29.677Z,100239.67
2018-12-18T06:42:57.113Z,100236.67
2018-12-18T06:45:24.545Z,100234.00
2018-12-18T06:47:51.987Z,100226.98
2018-12-18T06:50:20.282Z,100234.02
2018-12-18T06:52:47.914Z,100236.01
2018-12-18T06:55:15.370Z,100239.34
2018-12-18T06:57:42.812Z,100239.63
2018-12-18T07:00:10.229Z,100242.08
2018-12-18T07:02:37.683Z,100238.35
2018-12-18T07:05:05.098Z,100251.28
2018-12-18T07:07:32.542Z,100240.56
2018-12-18T07:09:59.972Z,100242.22
2018-12-18T07:12:27.403Z,100242.21
2018-12-18T07:14:54.850Z,100241.33
2018-12-18T07:17:22.365Z,100241.17
2018-12-18T07:19:49.784Z,100246.85
2018-12-18T07:22:17.193Z,100243.42
2018-12-18T07:24:44.637Z,100240.77
2018-12-18T07:27:12.109Z,100241.64
2018-12-18T07:29:39.547Z,100238.30
2018-12-18T07:32:06.974Z,100239.52
2018-12-18T07:36:54.686Z,100227.30
2018-12-18T07:39:22.137Z,100218.91
2018-12-18T07:41:49.598Z,100216.64
2018-12-18T07:44:17.034Z,100213.06
2018-12-18T07:46:44.461Z,100200.55
2018-12-18T07:49:13.338Z,100206.09
2018-12-18T07:51:40.839Z,100196.87
2018-12-18T07:54:08.285Z,100201.97
2018-12-18T07:56:35.743Z,100198.03
2018-12-18T07:59:03.170Z,100188.45
2018-12-18T08:01:30.594Z,100184.33
2018-12-18T08:03:58.010Z,100184.44
2018-12-18T08:06:25.470Z,100184.39
2018-12-18T08:08:52.898Z,100190.55
2018-12-18T08:11:20.334Z,100177.47
2018-12-18T08:13:47.748Z,100177.24
2018-12-18T08:16:15.182Z,100172.63
2018-12-18T08:18:42.605Z,100177.08
2018-12-18T08:21:10.053Z,100186.25
2018-12-18T08:23:37.520Z,100184.45
2018-12-18T08:26:04.946Z,100187.08
2018-12-18T08:28:32.387Z,100187.47
2018-12-18T08:30:59.799Z,100186.30
2018-12-18T08:33:27.258Z,100191.87
2018-12-18T08:35:54.685Z,100190.66
2018-12-18T08:38:22.117Z,100186.63
2018-12-18T08:40:49.563Z,100190.81
2018-12-18T08:43:17.067Z,100190.27
2018-12-18T08:45:45.923Z,100190.42
2018-12-18T08:48:13.425Z,100192.06
2018-12-18T08:50:40.868Z,100191.66
2018-12-18T08:53:08.305Z,100191.14
2018-12-18T08:55:36.165Z,100188.12
2018-12-18T08:58:03.582Z,100182.70
2018-12-18T09:00:31.016Z,100175.03
2018-12-18T09:02:59.289Z,100168.12
2018-12-18T09:05:26.893Z,100172.89
2018-12-18T09:07:54.331Z,100174.86
2018-12-18T09:10:21.795Z,100163.41
2018-12-18T09:12:49.206Z,100157.94
2018-12-18T09:15:22.189Z,100155.17
2018-12-18T09:17:49.611Z,100151.95
2018-12-18T09:20:17.041Z,100141.66
2018-12-18T09:22:44.454Z,100138.39
2018-12-18T09:25:11.915Z,100135.92
2018-12-18T09:27:39.351Z,100145.81
2018-12-18T09:30:06.813Z,100137.03
2018-12-18T09:32:34.237Z,100138.97
2018-12-18T09:35:01.719Z,100131.48
2018-12-18T09:37:29.173Z,100131.30
2018-12-18T09:39:56.596Z,100125.33
2018-12-18T09:42:29.696Z,100129.39
2018-12-18T09:44:57.142Z,100128.91
2018-12-18T09:47:24.575Z,100126.98
2018-12-18T09:49:51.987Z,100130.13
2018-12-18T09:52:19.435Z,100125.92
2018-12-18T09:54:46.856Z,100118.96
2018-12-18T09:57:19.969Z,100125.70
2018-12-18T09:59:47.390Z,100127.06
2018-12-18T10:02:14.828Z,100122.30
2018-12-18T10:04:43.052Z,100116.72
2018-12-18T10:07:10.491Z,100120.20
2018-12-18T10:09:37.917Z,100115.80
2018-12-18T10:12:05.368Z,100113.53
2018-12-18T10:14:32.801Z,100108.18
2018-12-18T10:17:00.245Z,100108.90
2018-12-18T10:19:27.689Z,100106.27
2018-12-18T10:21:55.128Z,100099.80
2018-12-18T10:24:22.567Z,100099.45
2018-12-18T10:26:50.010Z,100099.22
2018-12-18T10:29:17.424Z,100091.47
2018-12-18T10:31:44.880Z,100089.61
2018-12-18T10:34:12.322Z,100080.80
2018-12-18T10:36:39.785Z,100079.41
2018-12-18T10:39:07.229Z,100085.31
2018-12-18T10:41:34.698Z,100084.69
2018-12-18T10:44:02.168Z,100080.60
2018-12-18T10:46:29.633Z,100074.62
2018-12-18T10:48:57.055Z,100070.09
2018-12-18T10:51:24.474Z,100058.76
2018-12-18T10:53:51.906Z,100045.30
2018-12-18T10:56:19.356Z,100041.44
2018-12-18T10:58:46.783Z,100038.23
2018-12-18T11:01:14.232Z,100032.05
2018-12-18T11:03:41.674Z,100021.09
2018-12-18T11:06:09.979Z,100014.05
2018-12-18T11:08:36.561Z,100006.61
2018-12-18T11:11:04.523Z,99998.40
2018-12-18T11:13:31.970Z,99997.41
2018-12-18T11:15:59.392Z,99985.46
2018-12-18T11:18:27.640Z,99983.70
2018-12-18T11:20:55.187Z,99982.69
2018-12-18T11:23:22.600Z,99975.07
2018-12-18T11:25:50.037Z,99978.04
2018-12-18T11:28:17.442Z,99973.56
2018-12-18T11:30:44.883Z,99973.59
2018-12-18T11:33:12.331Z,99960.94
2018-12-18T11:35:39.761Z,99962.69
2018-12-18T11:38:07.163Z,99953.00
2018-12-18T11:40:35.493Z,99947.81
2018-12-18T11:43:02.991Z,99933.45
2018-12-18T11:45:30.418Z,99926.38
2018-12-18T11:47:57.856Z,99930.08
2018-12-18T11:50:25.266Z,99927.44
2018-12-18T11:52:52.704Z,99921.58
2018-12-18T11:55:20.162Z,99924.11
2018-12-18T11:57:47.598Z,99918.14
2018-12-18T12:00:15.088Z,99919.38
2018-12-18T12:02:42.962Z,99912.29
2018-12-18T12:05:09.927Z,99913.92
2018-12-18T12:07:37.395Z,99912.69
2018-12-18T12:10:04.806Z,99907.59
2018-12-18T12:12:32.285Z,99901.33
2018-12-18T12:14:59.700Z,99905.03
2018-12-18T12:17:27.137Z,99897.84
2018-12-18T12:19:54.585Z,99901.78
2018-12-18T12:22:22.014Z,99901.78
2018-12-18T12:24:49.444Z,99888.84
2018-12-18T12:27:22.593Z,99895.14
2018-12-18T12:29:50.009Z,99885.35
2018-12-18T12:32:17.446Z,99883.83
2018-12-18T12:34:44.868Z,99881.64
2018-12-18T12:37:12.321Z,99890.05
2018-12-18T12:39:39.749Z,99886.96
2018-12-18T12:42:07.187Z,99889.06
2018-12-18T12:44:34.620Z,99879.08
2018-12-18T12:47:02.031Z,99875.69
2018-12-18T12:49:35.228Z,99872.33
2018-12-18T12:52:02.688Z,99874.97
2018-12-18T12:54:30.124Z,99872.25
2018-12-18T12:56:57.582Z,99869.41
2018-12-18T12:59:25.422Z,99869.99
2018-12-18T13:01:52.895Z,99872.11
2018-12-18T13:04:20.387Z,99867.23
2018-12-18T13:06:47.833Z,99865.30
2018-12-18T13:09:15.265Z,99853.66
2018-12-18T13:11:42.737Z,99856.44
2018-12-18T13:14:10.180Z,99860.55
2018-12-18T13:16:38.591Z,99851.89
2018-12-18T13:19:06.143Z,99845.64
2018-12-18T13:21:33.571Z,99843.61
2018-12-18T13:24:01.042Z,99839.75
2018-12-18T13:26:28.506Z,99836.20
2018-12-18T13:28:55.938Z,99830.58
2018-12-18T13:31:23.371Z,99827.67
2018-12-18T13:33:50.803Z,99820.94
2018-12-18T13:36:18.233Z,99818.17
2018-12-18T13:38:45.634Z,99809.69
2018-12-18T13:41:13.071Z,99801.48
2018-12-18T13:43:40.483Z,99800.95
2018-12-18T13:46:07.939Z,99802.95
2018-12-18T13:48:35.354Z,99800.67
2018-12-18T13:51:02.798Z,99802.39
2018-12-18T13:53:30.214Z,99803.55
2018-12-18T13:55:57.665Z,99797.68
2018-12-18T13:58:25.142Z,99794.28
2018-12-18T14:00:52.549Z,99784.57
2018-12-18T14:03:19.991Z,99786.61
2018-12-18T14:05:47.415Z,99782.61
2018-12-18T14:08:14.823Z,99781.75
2018-12-18T14:10:42.255Z,99784.22
2018-12-18T14:13:09.666Z,99775.38
2018-12-18T14:15:37.154Z,99782.48
2018-12-18T14:18:04.592Z,99771.81
2018-12-18T14:20:32.023Z,99766.88
2018-12-18T14:22:59.495Z,99763.86
2018-12-18T14:25:26.921Z,99769.32
2018-12-18T14:27:54.382Z,99764.66
2018-12-18T14:30:21.796Z,99761.77
2018-12-18T14:32:49.251Z,99759.88
2018-12-18T14:35:16.666Z,99769.05
2018-12-18T14:37:44.096Z,99769.91
2018-12-18T14:40:11.526Z,99759.62
2018-12-18T14:42:38.968Z,99765.80
2018-12-18T14:45:06.429Z,99757.17
2018-12-18T14:47:33.834Z,99760.80
2018-12-18T14:50:01.312Z,99749.47
2018-12-18T14:52:28.742Z,99746.57
2018-12-18T14:54:56.155Z,99747.48
2018-12-18T14:57:23.594Z,99748.03
2018-12-18T14:59:51.014Z,99749.21
2018-12-18T15:02:18.451Z,99738.49
2018-12-18T15:04:45.901Z,99741.69
2018-12-18T15:07:13.330Z,99739.67
2018-12-18T15:09:40.797Z,99739.84
2018-12-18T15:12:08.253Z,99737.86
2018-12-18T15:14:35.739Z,99733.48
2018-12-18T15:17:03.160Z,99732.64
2018-12-18T15:19:30.604Z,99727.69
2018-12-18T15:21:58.039Z,99721.08
2018-12-18T15:24:25.511Z,99717.52
2018-12-18T15:26:52.936Z,99717.83
2018-12-18T15:29:20.371Z,99711.17
2018-12-18T15:31:47.810Z,99710.96
2018-12-18T15:34:15.254Z,99709.40
2018-12-18T15:36:42.738Z,99706.62
2018-12-18T15:39:10.173Z,99710.53
2018-12-18T15:41:38.573Z,99710.01
2018-12-18T15:44:06.070Z,99711.77
2018-12-18T15:46:33.531Z,99710.95
2018-12-18T15:49:00.953Z,99703.61
2018-12-18T15:51:28.415Z,99700.34
2018-12-18T15:53:55.848Z,99706.89
2018-12-18T15:56:23.276Z,99710.18
2018-12-18T15:58:50.694Z,99710.81
2018-12-18T16:01:18.115Z,99716.45
2018-12-18T16:03:45.548Z,99711.34
2018-12-18T16:06:13.002Z,99705.03
2018-12-18T16:08:40.432Z,99702.94
2018-12-18T16:11:07.871Z,99699.62
2018-12-18T16:13:35.301Z,99698.19
2018-12-18T16:16:02.749Z,99695.67
2018-12-18T16:18:30.193Z,99693.97
2018-12-18T16:20:57.616Z,99690.91
2018-12-18T16:23:25.044Z,99688.48
2018-12-18T16:25:52.467Z,99685.38
2018-12-18T16:28:19.900Z,99678.77
2018-12-18T16:30:47.352Z,99669.55
2018-12-18T16:33:14.769Z,99654.19
2018-12-18T16:35:46.135Z,99642.47
2018-12-18T16:38:09.706Z,99631.35
2018-12-18T16:40:38.209Z,99632.11
2018-12-18T16:43:04.582Z,99641.92
2018-12-18T16:45:32.009Z,99642.37
2018-12-18T16:47:59.454Z,99622.50
2018-12-18T16:50:26.888Z,99626.86
2018-12-18T16:52:54.323Z,99613.97
2018-12-18T16:55:21.762Z,99612.13
2018-12-18T16:57:49.201Z,99612.42
2018-12-18T17:00:16.633Z,99616.82
2018-12-18T17:02:45.001Z,99608.15
2018-12-18T17:05:11.494Z,99602.63
2018-12-18T17:07:38.922Z,99597.81
2018-12-18T17:10:06.360Z,99589.35
2018-12-18T17:12:33.815Z,99594.23
2018-12-18T17:15:01.257Z,99582.51
2018-12-18T17:17:28.681Z,99581.26
2018-12-18T17:19:56.141Z,99575.00
2018-12-18T17:22:23.585Z,99574.12
2018-12-18T17:24:51.008Z,99573.06
2018-12-18T17:27:18.457Z,99566.77
2018-12-18T17:29:45.902Z,99565.05
2018-12-18T17:32:13.328Z,99561.15
2018-12-18T17:34:40.765Z,99566.12
2018-12-18T17:37:08.236Z,99565.63
2018-12-18T17:39:35.667Z,99571.91
2018-12-18T17:42:03.115Z,99563.79
2018-12-18T17:44:30.543Z,99572.17
2018-12-18T17:46:57.979Z,99560.06
2018-12-18T17:49:25.420Z,99559.39
2018-12-18T17:51:52.876Z,99553.70
2018-12-18T17:54:20.341Z,99540.70
2018-12-18T17:56:48.309Z,99531.30
2018-12-18T17:59:15.745Z,99525.48
2018-12-18T18:01:43.177Z,99525.00
2018-12-18T18:04:10.649Z,99528.70
2018-12-18T18:06:38.103Z,99519.78
2018-12-18T18:09:05.533Z,99529.66
2018-12-18T18:11:34.096Z,99501.91
2018-12-18T18:14:01.566Z,99504.77
2018-12-18T18:16:29.004Z,99491.48
2018-12-18T18:18:56.441Z,99491.81
2018-12-18T18:21:23.870Z,99492.20
2018-12-18T18:23:51.310Z,99481.17
2018-12-18T18:26:18.744Z,99481.60
2018-12-18T18:28:46.205Z,99468.66
2018-12-18T18:31:13.640Z,99452.48
2018-12-18T18:33:41.086Z,99454.12
2018-12-18T18:36:08.523Z,99449.44
2018-12-18T18:38:35.941Z,99447.13
2018-12-18T18:41:03.377Z,99437.97
2018-12-18T18:43:30.788Z,99442.25
2018-12-18T18:45:58.240Z,99436.27
2018-12-18T18:48:26.375Z,99436.88
2018-12-18T18:50:53.927Z,99427.80
2018-12-18T18:53:21.397Z,99423.56
2018-12-18T18:55:48.847Z,99413.28
2018-12-18T18:58:16.298Z,99405.80
2018-12-18T19:00:43.737Z,99398.94
2018-12-18T19:03:11.175Z,99391.05
2018-12-18T19:05:38.641Z,99392.49
2018-12-18T19:08:06.059Z,99375.86
2018-12-18T19:10:33.518Z,99359.00
2018-12-18T19:13:00.930Z,99363.63
2018-12-18T19:15:28.392Z,99356.94
2018-12-18T19:17:55.822Z,99358.91
2018-12-18T19:20:23.251Z,99361.33
2018-12-18T19:22:51.207Z,99364.84
2018-12-18T19:25:18.656Z,99365.84
2018-12-18T19:27:46.080Z,99374.77
2018-12-18T19:30:13.525Z,99373.75
2018-12-18T19:32:40.963Z,99372.05
2018-12-18T19:35:08.393Z,99372.77
2018-12-18T19:37:35.859Z,99360.25
2018-12-18T19:40:03.311Z,99358.88
2018-12-18T19:42:30.791Z,99367.50
2018-12-18T19:44:58.225Z,99363.17
2018-12-18T19:47:25.662Z,99358.84
2018-12-18T19:49:53.121Z,99362.16
2018-12-18T19:52:20.538Z,99360.93
2018-12-18T19:54:48.001Z,99348.98
2018-12-18T19:57:15.441Z,99364.33
2018-12-18T19:59:42.892Z,99355.96
2018-12-18T20:02:10.334Z,99349.95
2018-12-18T20:04:37.772Z,99350.53
2018-12-18T20:07:05.242Z,99350.80
2018-12-18T20:09:32.696Z,99351.59
2018-12-18T20:12:00.142Z,99355.48
2018-12-18T20:14:27.562Z,99340.85
2018-12-18T20:16:55.018Z,99341.70
2018-12-18T20:19:22.443Z,99343.36
2018-12-18T20:21:49.876Z,99337.50
2018-12-18T20:24:17.368Z,99343.16
2018-12-18T20:26:44.787Z,99336.33
2018-12-18T20:29:12.230Z,99333.33
2018-12-18T20:31:39.655Z,99335.95
2018-12-18T20:34:07.103Z,99333.61
2018-12-18T20:36:34.541Z,99324.69
2018-12-18T20:39:03.215Z,99319.98
2018-12-18T20:41:30.905Z,99320.57
2018-12-18T20:43:58.370Z,99319.74
2018-12-18T20:46:25.818Z,99320.41
2018-12-18T20:48:53.249Z,99306.41
2018-12-18T20:51:20.689Z,99300.63
2018-12-18T20:53:48.139Z,99307.05
2018-12-18T20:56:15.627Z,99299.74
2018-12-18T20:58:43.114Z,99300.54
2018-12-18T21:01:10.584Z,99305.92
2018-12-18T21:03:38.060Z,99304.56
2018-12-18T21:06:05.536Z,99311.41
2018-12-18T21:08:33.013Z,99301.73
2018-12-18T21:11:00.467Z,99285.88
2018-12-18T21:13:28.660Z,99278.61
2018-12-18T21:15:56.420Z,99285.89
2018-12-18T21:18:23.997Z,99274.20
2018-12-18T21:20:51.445Z,99257.92
2018-12-18T21:23:18.911Z,99247.88
2018-12-18T21:25:46.350Z,99258.28
2018-12-18T21:28:16.090Z,99259.33
2018-12-18T21:30:43.590Z,99255.74
2018-12-18T21:33:11.029Z,99249.72
2018-12-18T21:35:38.452Z,99243.55
2018-12-18T21:38:05.897Z,99233.36
2018-12-18T21:40:33.312Z,99233.81
2018-12-18T21:43:00.758Z,99238.84
2018-12-18T21:45:28.184Z,99224.98
2018-12-18T21:47:55.624Z,99239.16
2018-12-18T21:50:23.154Z,99220.95
2018-12-18T21:52:50.575Z,99216.50
2018-12-18T21:55:18.006Z,99204.41
2018-12-18T21:57:45.501Z,99186.47
2018-12-18T22:00:12.963Z,99198.34
2018-12-18T22:02:41.253Z,99188.69
2018-12-18T22:05:08.760Z,99169.64
2018-12-18T22:07:36.201Z,99176.66
2018-12-18T22:10:03.651Z,99175.91
2018-12-18T22:12:31.108Z,99165.80
2018-12-18T22:14:58.549Z,99166.65
2018-12-18T22:17:26.087Z,99150.50
2018-12-18T22:19:53.515Z,99149.28
2018-12-18T22:22:20.963Z,99158.37
2018-12-18T22:24:48.391Z,99136.30
2018-12-18T22:27:15.847Z,99134.95
2018-12-18T22:29:43.305Z,99118.98
2018-12-18T22:32:10.728Z,99129.12
2018-12-18T22:34:38.178Z,99116.71
2018-12-18T22:37:06.174Z,99125.42
2018-12-18T22:39:33.701Z,99115.39
2018-12-18T22:42:01.167Z,99120.98
2018-12-18T22:44:28.639Z,99105.56
2018-12-18T22:46:56.191Z,99104.16
2018-12-18T22:49:23.674Z,99098.73
2018-12-18T22:51:51.114Z,99103.27
2018-12-18T22:56:55.245Z,99096.52
2018-12-18T22:59:23.387Z,99098.45
2018-12-18T23:01:50.857Z,99090.48
2018-12-18T23:04:18.275Z,99084.73
2018-12-18T23:06:45.737Z,99074.48
2018-12-18T23:09:13.970Z,99063.00
2018-12-18T23:11:41.378Z,99045.08
2018-12-18T23:14:08.834Z,99065.59
2018-12-18T23:16:36.269Z,99048.91
2018-12-18T23:19:04.633Z,99052.91
2018-12-18T23:21:32.046Z,99046.40
2018-12-18T23:23:59.498Z,99046.73
2018-12-18T23:26:26.918Z,99044.09
2018-12-18T23:28:54.350Z,99049.00
2018-12-18T23:31:21.822Z,99047.68
2018-12-18T23:33:49.275Z,99028.62
2018-12-18T23:36:16.690Z,99039.98
2018-12-18T23:38:44.166Z,99054.83
2018-12-18T23:41:11.633Z,99031.83
2018-12-18T23:43:39.101Z,99046.70
2018-12-18T23:46:06.559Z,99042.05
2018-12-18T23:48:39.573Z,99033.63
2018-12-18T23:51:01.477Z,99040.59
2018-12-18T23:53:28.952Z,99014.50
2018-12-18T23:55:56.413Z,99012.23
2018-12-18T23:58:23.849Z,99002.32
